createdAt,value
2022-12-23T00:02:06.221Z,10.77
2022-12-23T00:04:39.383Z,10.57
2022-12-23T00:07:06.132Z,10.90
2022-12-23T00:09:46.192Z,10.74
2022-12-23T00:22:58.784Z,11.04
2022-12-23T00:25:34.638Z,10.95
2022-12-23T00:28:08.159Z,10.34
2022-12-23T00:30:46.324Z,10.95
2022-12-23T00:33:31.172Z,10.59
2022-12-23T00:50:08.141Z,11.05
2022-12-23T00:52:48.174Z,11.19
2022-12-23T00:55:21.993Z,11.24
2022-12-23T00:57:55.156Z,10.94
2022-12-23T01:00:28.798Z,11.27
2022-12-23T01:03:02.392Z,10.70
2022-12-23T01:05:38.287Z,10.96
2022-12-23T01:15:21.183Z,10.64
2022-12-23T01:17:54.636Z,11.20
2022-12-23T01:20:28.164Z,11.75
2022-12-23T01:23:03.952Z,11.73
2022-12-23T01:25:37.710Z,12.28
2022-12-23T01:28:11.421Z,11.72
2022-12-23T01:30:45.149Z,11.92
2022-12-23T01:43:58.183Z,11.55
2022-12-23T01:46:31.444Z,11.25
2022-12-23T01:49:05.154Z,10.58
2022-12-23T01:51:38.553Z,11.30
2022-12-23T01:54:12.171Z,10.87
2022-12-23T02:11:17.132Z,11.12
2022-12-23T02:14:18.177Z,11.76
2022-12-23T02:17:08.730Z,10.83
2022-12-23T02:20:41.176Z,10.94
2022-12-23T02:24:07.208Z,11.53
2022-12-23T02:37:20.108Z,10.77
2022-12-23T02:40:08.148Z,11.22
2022-12-23T02:42:48.969Z,11.12
2022-12-23T02:45:40.179Z,11.26
2022-12-23T02:48:22.825Z,11.06
2022-12-23T03:04:03.182Z,10.89
2022-12-23T03:06:40.965Z,10.89
2022-12-23T03:09:31.150Z,10.63
2022-12-23T03:12:14.892Z,10.94
2022-12-23T03:15:21.145Z,10.82
2022-12-23T03:29:11.133Z,9.43
2022-12-23T03:31:49.891Z,9.46
2022-12-23T03:34:38.773Z,9.77
2022-12-23T03:37:16.759Z,9.43
2022-12-23T03:40:07.129Z,10.07
2022-12-23T03:42:45.484Z,9.41
2022-12-23T03:45:39.208Z,9.98
2022-12-23T03:55:56.091Z,9.65
2022-12-23T03:58:46.144Z,9.23
2022-12-23T04:01:36.795Z,8.95
2022-12-23T04:04:26.163Z,8.72
2022-12-23T04:07:06.895Z,9.17
2022-12-23T04:09:48.137Z,8.53
2022-12-23T04:23:00.149Z,8.38
2022-12-23T04:25:33.447Z,8.36
2022-12-23T04:28:07.185Z,8.03
2022-12-23T04:30:40.466Z,7.81
2022-12-23T04:33:16.413Z,7.98
2022-12-23T04:35:49.486Z,7.50
2022-12-23T04:49:23.104Z,6.23
2022-12-23T04:52:05.119Z,5.85
2022-12-23T04:54:45.539Z,5.87
2022-12-23T04:57:26.200Z,5.80
2022-12-23T04:59:59.461Z,5.59
2022-12-23T05:02:33.230Z,5.57
2022-12-23T05:05:07.524Z,5.26
2022-12-23T05:18:05.083Z,5.04
2022-12-23T05:20:45.113Z,5.19
2022-12-23T05:23:18.437Z,4.90
2022-12-23T05:25:57.110Z,5.08
2022-12-23T05:28:30.856Z,4.87
2022-12-23T05:44:03.118Z,5.24
2022-12-23T05:46:36.500Z,5.13
2022-12-23T05:49:11.731Z,5.24
2022-12-23T05:51:45.399Z,4.82
2022-12-23T05:54:19.119Z,4.72
2022-12-23T06:10:56.072Z,5.14
2022-12-23T06:13:36.112Z,5.41
2022-12-23T06:16:09.452Z,5.40
2022-12-23T06:18:43.091Z,5.32
2022-12-23T06:21:16.364Z,5.18
2022-12-23T06:23:50.105Z,5.52
2022-12-23T06:37:02.132Z,6.05
2022-12-23T06:39:35.402Z,6.40
2022-12-23T06:42:10.164Z,6.54
2022-12-23T06:44:43.452Z,6.42
2022-12-23T06:47:17.104Z,6.60
2022-12-23T06:49:50.490Z,6.88
2022-12-23T07:03:11.175Z,6.70
2022-12-23T07:05:54.121Z,7.01
2022-12-23T07:08:27.362Z,7.03
2022-12-23T07:11:04.104Z,6.92
2022-12-23T07:13:37.371Z,7.09
2022-12-23T07:16:13.099Z,7.48
2022-12-23T07:18:53.688Z,7.28
2022-12-23T07:31:49.126Z,7.63
2022-12-23T07:34:31.085Z,7.51
2022-12-23T07:37:04.567Z,7.81
2022-12-23T07:39:38.095Z,7.44
2022-12-23T07:45:14.077Z,7.35
2022-12-23T07:58:26.098Z,6.84
2022-12-23T08:01:01.041Z,6.90
2022-12-23T08:03:34.126Z,6.89
2022-12-23T08:06:13.074Z,6.58
2022-12-23T08:08:53.147Z,6.26
2022-12-23T08:25:30.468Z,6.60
2022-12-23T08:28:10.120Z,6.15
2022-12-23T08:30:43.659Z,5.86
2022-12-23T08:33:17.103Z,5.29
2022-12-23T08:35:53.892Z,5.68
2022-12-23T08:38:34.083Z,5.68
2022-12-23T08:51:46.151Z,5.78
2022-12-23T08:54:19.373Z,5.93
2022-12-23T08:56:53.182Z,5.88
2022-12-23T08:59:26.701Z,5.75
2022-12-23T09:02:00.168Z,5.47
2022-12-23T09:04:33.513Z,5.74
2022-12-23T09:17:24.125Z,4.72
2022-12-23T09:20:04.125Z,4.84
2022-12-23T09:22:37.360Z,4.49
2022-12-23T09:25:12.149Z,4.53
2022-12-23T09:27:45.297Z,4.13
2022-12-23T09:30:20.086Z,4.12
2022-12-23T09:43:56.115Z,3.66
2022-12-23T09:46:33.846Z,3.55
2022-12-23T09:49:20.692Z,3.62
2022-12-23T09:52:02.684Z,3.42
2022-12-23T09:54:51.178Z,3.32
2022-12-23T09:57:36.603Z,3.42
2022-12-23T10:00:29.075Z,2.91
2022-12-23T10:10:35.040Z,3.84
2022-12-23T10:13:31.103Z,3.55
2022-12-23T10:16:16.488Z,3.77
2022-12-23T10:19:03.120Z,4.44
2022-12-23T10:21:47.784Z,4.09
2022-12-23T10:24:31.059Z,4.42
2022-12-23T10:37:54.081Z,5.48
2022-12-23T10:40:39.150Z,5.17
2022-12-23T10:43:33.108Z,5.44
2022-12-23T10:46:20.564Z,5.60
2022-12-23T10:49:17.067Z,5.90
2022-12-23T11:05:59.077Z,5.63
2022-12-23T11:08:39.092Z,5.09
2022-12-23T11:11:12.553Z,5.01
2022-12-23T11:13:49.108Z,5.15
2022-12-23T11:16:25.412Z,5.36
2022-12-23T11:19:03.111Z,5.53
2022-12-23T11:32:25.061Z,5.39
2022-12-23T11:34:58.398Z,5.13
2022-12-23T11:37:42.075Z,5.61
2022-12-23T11:40:26.560Z,5.73
2022-12-23T11:43:11.045Z,5.25
2022-12-23T11:45:44.423Z,4.94
2022-12-23T11:58:44.051Z,4.68
2022-12-23T12:01:31.453Z,4.30
2022-12-23T12:04:15.905Z,4.15
2022-12-23T12:06:58.076Z,4.24
2022-12-23T12:09:34.114Z,4.37
2022-12-23T12:25:56.113Z,3.74
2022-12-23T12:28:37.225Z,4.21
2022-12-23T12:31:29.316Z,4.07
2022-12-23T12:34:27.159Z,4.13
2022-12-23T12:37:17.107Z,4.10
2022-12-23T12:39:55.852Z,4.22
2022-12-23T12:52:53.024Z,4.05
2022-12-23T12:55:38.093Z,4.13
2022-12-23T12:58:19.445Z,4.22
2022-12-23T13:01:26.080Z,3.80
2022-12-23T13:04:54.506Z,3.62
2022-12-23T13:18:11.073Z,4.08
2022-12-23T13:21:02.111Z,3.93
2022-12-23T13:23:46.511Z,3.91
2022-12-23T13:26:45.035Z,4.03
2022-12-23T13:29:41.608Z,3.50
2022-12-23T13:46:15.093Z,3.49
2022-12-23T13:48:59.636Z,3.73
2022-12-23T13:51:55.063Z,3.76
2022-12-23T13:54:48.635Z,4.01
2022-12-23T13:58:00.036Z,4.37
2022-12-23T14:00:34.639Z,4.66
2022-12-23T14:13:26.000Z,4.78
2022-12-23T14:16:28.158Z,4.86
2022-12-23T14:19:53.036Z,4.74
2022-12-23T14:22:53.117Z,4.90
2022-12-23T14:25:48.263Z,4.72
2022-12-23T14:38:45.002Z,5.14
2022-12-23T14:41:30.046Z,5.47
2022-12-23T14:44:17.948Z,5.98
2022-12-23T14:47:03.123Z,6.47
2022-12-23T14:49:42.400Z,6.95
2022-12-23T15:06:11.068Z,7.74
2022-12-23T15:08:47.353Z,7.37
2022-12-23T15:11:35.381Z,7.84
2022-12-23T15:14:18.095Z,7.62
2022-12-23T15:16:58.049Z,7.52
2022-12-23T15:19:32.421Z,7.86
2022-12-23T15:32:25.051Z,8.25
2022-12-23T15:35:12.043Z,8.36
2022-12-23T15:37:48.996Z,8.44
2022-12-23T15:40:32.083Z,8.67
2022-12-23T15:43:19.662Z,8.55
2022-12-23T15:59:38.059Z,8.73
2022-12-23T16:05:35.093Z,8.55
2022-12-23T16:08:19.351Z,8.76
2022-12-23T16:11:12.073Z,9.04
2022-12-23T16:13:58.677Z,9.03
2022-12-23T16:26:56.052Z,9.25
2022-12-23T16:29:38.086Z,9.46
2022-12-23T16:32:15.860Z,9.76
2022-12-23T16:34:58.027Z,9.80
2022-12-23T16:37:31.263Z,9.43
2022-12-23T16:39:58.112Z,9.57
2022-12-23T16:52:55.000Z,9.09
2022-12-23T16:55:35.040Z,9.55
2022-12-23T16:58:08.438Z,9.56
2022-12-23T17:00:44.035Z,9.13
2022-12-23T17:03:19.123Z,9.35
2022-12-23T17:05:53.070Z,9.44
2022-12-23T17:19:05.698Z,9.13
2022-12-23T17:21:42.188Z,9.29
2022-12-23T17:24:23.024Z,9.14
2022-12-23T17:26:56.367Z,9.39
2022-12-23T17:29:30.025Z,9.18
2022-12-23T17:32:04.116Z,9.04
2022-12-23T17:34:39.082Z,8.55
2022-12-23T17:45:08.988Z,7.56
2022-12-23T17:47:49.057Z,7.22
2022-12-23T17:50:24.943Z,7.11
2022-12-23T17:52:58.008Z,7.25
2022-12-23T17:55:32.469Z,7.10
2022-12-23T17:58:13.060Z,6.93
2022-12-23T18:00:46.379Z,7.02
2022-12-23T18:13:37.032Z,7.03
2022-12-23T18:16:18.079Z,6.36
2022-12-23T18:18:51.320Z,6.69
2022-12-23T18:21:34.726Z,6.91
2022-12-23T18:24:10.450Z,6.94
2022-12-23T18:40:34.005Z,6.09
2022-12-23T18:43:16.697Z,6.28
2022-12-23T18:45:58.013Z,5.85
2022-12-23T18:48:31.247Z,5.66
2022-12-23T18:51:05.029Z,5.92
2022-12-23T18:53:38.263Z,5.92
2022-12-23T18:56:18.068Z,6.02
2022-12-23T19:06:13.959Z,6.87
2022-12-23T19:08:54.047Z,7.41
2022-12-23T19:11:29.508Z,8.01
2022-12-23T19:14:02.978Z,8.09
2022-12-23T19:16:36.433Z,8.31
2022-12-23T19:19:09.987Z,8.65
2022-12-23T19:32:22.060Z,10.02
2022-12-23T19:34:55.215Z,9.99
2022-12-23T19:37:21.941Z,10.46
2022-12-23T19:40:02.056Z,10.63
2022-12-23T19:42:37.409Z,10.93
2022-12-23T19:45:13.064Z,11.16
2022-12-23T19:59:00.053Z,10.81
2022-12-23T20:01:33.373Z,10.31
2022-12-23T20:04:07.044Z,10.16
2022-12-23T20:06:42.179Z,10.41
2022-12-23T20:09:17.995Z,10.19
2022-12-23T20:11:51.241Z,10.19
2022-12-23T20:14:30.439Z,10.41
2022-12-23T20:27:44.976Z,10.15
2022-12-23T20:30:20.804Z,9.70
2022-12-23T20:32:54.045Z,9.61
2022-12-23T20:35:29.082Z,9.54
2022-12-23T20:38:03.033Z,9.66
2022-12-23T20:40:36.411Z,9.49
2022-12-23T20:53:26.959Z,9.04
2022-12-23T20:56:07.001Z,9.22
2022-12-23T20:58:40.793Z,9.54
2022-12-23T21:01:15.025Z,8.70
2022-12-23T21:03:55.516Z,7.60
2022-12-23T21:20:18.039Z,6.18
2022-12-23T21:22:51.247Z,5.70
2022-12-23T21:25:25.016Z,5.66
2022-12-23T21:27:58.219Z,5.77
2022-12-23T21:30:33.729Z,5.76
2022-12-23T21:33:09.579Z,5.73
2022-12-23T21:35:51.999Z,5.65
2022-12-23T21:46:04.011Z,6.50
2022-12-23T21:48:50.042Z,6.74
2022-12-23T21:51:33.348Z,6.63
2022-12-23T21:54:18.972Z,6.91
2022-12-23T21:56:52.176Z,7.25
2022-12-23T21:59:31.114Z,7.46
2022-12-23T22:12:47.038Z,8.76
2022-12-23T22:15:20.197Z,9.37
2022-12-23T22:17:53.971Z,9.19
2022-12-23T22:20:27.216Z,9.40
2022-12-23T22:23:01.018Z,8.62
2022-12-23T22:25:34.845Z,9.04
2022-12-23T22:41:50.045Z,7.09
2022-12-23T22:44:23.207Z,6.80
2022-12-23T22:46:56.968Z,6.69
2022-12-23T22:49:30.353Z,6.08
2022-12-23T22:52:04.018Z,6.28
2022-12-23T22:54:37.260Z,5.92
2022-12-23T23:07:26.980Z,5.98
2022-12-23T23:10:07.387Z,5.73
2022-12-23T23:12:41.767Z,5.60
2022-12-23T23:15:17.025Z,5.49
2022-12-23T23:17:50.322Z,5.01
2022-12-23T23:20:23.964Z,4.18
2022-12-23T23:33:35.956Z,3.01
2022-12-23T23:36:09.930Z,2.77
2022-12-23T23:38:44.245Z,3.06
2022-12-23T23:41:22.578Z,3.35
2022-12-23T23:44:04.057Z,3.34
